UAL1180 KDEN-KCOS
Flight info
| Callsign | UAL1180 |
|---|---|
| Flight time | 0h 20m |
| Altitude | 11000 |
| Route | LUFSE V389 ADANE BRK |
| Aircraft | A320/M-SDE3FGHIRWY/LB1 |
Departure
| Time | 2026-04-21 02:09 |
|---|---|
| Airport | Denver International Airport (KDEN) |
Arrival
| Time | 2026-04-21 02:30 |
|---|---|
| Airport | City of Colorado Springs Municipal Airport (KCOS) |
| Time | Latitude | Longitude | Altitude | Speed | Heading |
|---|---|---|---|---|---|
| 2026-04-21 01:48 | 39.85804 | -104.67732 | 5380 ft | 0 kts | 0° |
| 2026-04-21 01:59 | 39.85798 | -104.67732 | 5380 ft | 3 kts | 0° |
| 2026-04-21 01:59 | 39.85781 | -104.67732 | 5377 ft | 3 kts | 0° |
| 2026-04-21 01:59 | 39.85763 | -104.67732 | 5378 ft | 3 kts | 360° |
| 2026-04-21 01:59 | 39.85746 | -104.67732 | 5379 ft | 3 kts | 360° |
| 2026-04-21 02:00 | 39.85739 | -104.67732 | 5380 ft | 0 kts | 360° |
| 2026-04-21 02:02 | 39.85740 | -104.67731 | 5380 ft | 0 kts | 3° |
| 2026-04-21 02:02 | 39.85741 | -104.67726 | 5380 ft | 1 kts | 50° |
| 2026-04-21 02:03 | 39.85729 | -104.67699 | 5377 ft | 7 kts | 135° |
| 2026-04-21 02:03 | 39.85688 | -104.67649 | 5377 ft | 9 kts | 136° |
| 2026-04-21 02:03 | 39.85667 | -104.67568 | 5381 ft | 12 kts | 92° |
| 2026-04-21 02:03 | 39.85664 | -104.67434 | 5381 ft | 18 kts | 91° |
| 2026-04-21 02:04 | 39.85662 | -104.67243 | 5381 ft | 23 kts | 90° |
| 2026-04-21 02:04 | 39.85661 | -104.67031 | 5381 ft | 24 kts | 90° |
| 2026-04-21 02:04 | 39.85660 | -104.66812 | 5381 ft | 25 kts | 90° |
| 2026-04-21 02:04 | 39.85659 | -104.66605 | 5381 ft | 15 kts | 90° |
| 2026-04-21 02:05 | 39.85678 | -104.66488 | 5380 ft | 14 kts | 88° |
| 2026-04-21 02:05 | 39.85678 | -104.66366 | 5386 ft | 14 kts | 90° |
| 2026-04-21 02:05 | 39.85688 | -104.66254 | 5390 ft | 12 kts | 54° |
| 2026-04-21 02:05 | 39.85795 | -104.66233 | 5388 ft | 21 kts | 1° |
| 2026-04-21 02:06 | 39.85964 | -104.66229 | 5388 ft | 28 kts | 360° |
| 2026-04-21 02:06 | 39.86168 | -104.66226 | 5382 ft | 31 kts | 1° |
| 2026-04-21 02:06 | 39.86385 | -104.66225 | 5382 ft | 32 kts | 0° |
| 2026-04-21 02:06 | 39.86610 | -104.66223 | 5378 ft | 33 kts | 0° |
| 2026-04-21 02:07 | 39.86848 | -104.66220 | 5370 ft | 36 kts | 0° |
| 2026-04-21 02:07 | 39.87087 | -104.66218 | 5367 ft | 30 kts | 0° |
| 2026-04-21 02:07 | 39.87303 | -104.66213 | 5363 ft | 32 kts | 1° |
| 2026-04-21 02:07 | 39.87531 | -104.66210 | 5361 ft | 28 kts | 359° |
| 2026-04-21 02:08 | 39.87674 | -104.66209 | 5362 ft | 16 kts | 1° |
| 2026-04-21 02:08 | 39.87754 | -104.66185 | 5360 ft | 11 kts | 68° |
| 2026-04-21 02:08 | 39.87756 | -104.66151 | 5360 ft | 4 kts | 91° |
| 2026-04-21 02:08 | 39.87752 | -104.65843 | 5356 ft | 70 kts | 90° |
| 2026-04-21 02:09 | 39.87746 | -104.64926 | 5348 ft | 129 kts | 90° |
| 2026-04-21 02:09 | 39.87732 | -104.63533 | 5365 ft | 173 kts | 92° |
| 2026-04-21 02:09 | 39.87660 | -104.61937 | 5949 ft | 182 kts | 100° |
| 2026-04-21 02:09 | 39.87277 | -104.60367 | 6700 ft | 181 kts | 111° |
| 2026-04-21 02:10 | 39.86795 | -104.58827 | 7244 ft | 192 kts | 117° |
| 2026-04-21 02:10 | 39.85828 | -104.57524 | 7446 ft | 217 kts | 153° |
| 2026-04-21 02:10 | 39.84296 | -104.56927 | 7710 ft | 243 kts | 166° |
| 2026-04-21 02:10 | 39.82571 | -104.56412 | 8043 ft | 267 kts | 166° |
| 2026-04-21 02:11 | 39.80688 | -104.55870 | 8506 ft | 284 kts | 167° |
| 2026-04-21 02:11 | 39.78733 | -104.55311 | 9225 ft | 291 kts | 167° |
| 2026-04-21 02:11 | 39.76731 | -104.54734 | 9985 ft | 297 kts | 168° |
| 2026-04-21 02:11 | 39.74645 | -104.54128 | 10329 ft | 319 kts | 168° |
| 2026-04-21 02:12 | 39.72403 | -104.53473 | 10598 ft | 339 kts | 168° |
| 2026-04-21 02:12 | 39.70072 | -104.52788 | 10938 ft | 347 kts | 168° |
| 2026-04-21 02:12 | 39.67722 | -104.52091 | 11001 ft | 347 kts | 168° |
| 2026-04-21 02:12 | 39.65368 | -104.51391 | 11002 ft | 347 kts | 168° |
| 2026-04-21 02:13 | 39.63011 | -104.50688 | 10991 ft | 347 kts | 168° |
| 2026-04-21 02:13 | 39.60662 | -104.49988 | 10977 ft | 347 kts | 168° |
| 2026-04-21 02:13 | 39.58309 | -104.49289 | 10964 ft | 347 kts | 168° |
| 2026-04-21 02:13 | 39.55958 | -104.48594 | 10962 ft | 346 kts | 167° |
| 2026-04-21 02:14 | 39.53631 | -104.47908 | 10950 ft | 341 kts | 167° |
| 2026-04-21 02:14 | 39.51324 | -104.47230 | 10938 ft | 339 kts | 167° |
| 2026-04-21 02:14 | 39.49049 | -104.46560 | 10927 ft | 339 kts | 167° |
| 2026-04-21 02:14 | 39.46749 | -104.45881 | 10928 ft | 339 kts | 167° |
| 2026-04-21 02:15 | 39.44417 | -104.45193 | 10919 ft | 339 kts | 167° |
| 2026-04-21 02:15 | 39.42111 | -104.44514 | 10913 ft | 339 kts | 167° |
| 2026-04-21 02:15 | 39.39844 | -104.43846 | 10905 ft | 339 kts | 167° |
| 2026-04-21 02:15 | 39.37510 | -104.43160 | 10908 ft | 339 kts | 167° |
| 2026-04-21 02:16 | 39.35209 | -104.42484 | 10909 ft | 339 kts | 167° |
| 2026-04-21 02:16 | 39.32921 | -104.41814 | 10908 ft | 336 kts | 166° |
| 2026-04-21 02:16 | 39.30640 | -104.41146 | 10905 ft | 335 kts | 165° |
| 2026-04-21 02:16 | 39.28398 | -104.40492 | 10906 ft | 334 kts | 166° |
| 2026-04-21 02:17 | 39.26135 | -104.39829 | 10916 ft | 334 kts | 166° |
| 2026-04-21 02:17 | 39.23832 | -104.39156 | 10930 ft | 335 kts | 165° |
| 2026-04-21 02:17 | 39.21593 | -104.38501 | 10935 ft | 334 kts | 165° |
| 2026-04-21 02:17 | 39.19323 | -104.37846 | 10950 ft | 335 kts | 166° |
| 2026-04-21 02:18 | 39.17046 | -104.37189 | 10963 ft | 335 kts | 165° |
| 2026-04-21 02:18 | 39.14775 | -104.36543 | 10975 ft | 334 kts | 166° |
| 2026-04-21 02:18 | 39.12502 | -104.35889 | 10979 ft | 335 kts | 166° |
| 2026-04-21 02:18 | 39.10228 | -104.35201 | 10991 ft | 336 kts | 166° |
| 2026-04-21 02:19 | 39.07947 | -104.34557 | 11000 ft | 336 kts | 172° |
| 2026-04-21 02:19 | 39.05617 | -104.34657 | 11012 ft | 338 kts | 191° |
| 2026-04-21 02:19 | 39.03347 | -104.35462 | 11028 ft | 338 kts | 195° |
| 2026-04-21 02:19 | 39.01086 | -104.36310 | 11036 ft | 339 kts | 195° |
| 2026-04-21 02:20 | 38.98842 | -104.37159 | 11043 ft | 330 kts | 195° |
| 2026-04-21 02:20 | 38.96699 | -104.37974 | 11052 ft | 313 kts | 195° |
| 2026-04-21 02:20 | 38.94658 | -104.38750 | 11059 ft | 300 kts | 195° |
| 2026-04-21 02:20 | 38.92667 | -104.39502 | 11065 ft | 298 kts | 195° |
| 2026-04-21 02:21 | 38.90669 | -104.40200 | 11067 ft | 297 kts | 191° |
| 2026-04-21 02:21 | 38.88640 | -104.40598 | 11059 ft | 293 kts | 187° |
| 2026-04-21 02:21 | 38.86625 | -104.40922 | 10732 ft | 291 kts | 187° |
| 2026-04-21 02:21 | 38.84619 | -104.41242 | 10401 ft | 290 kts | 187° |
| 2026-04-21 02:22 | 38.82628 | -104.41570 | 10070 ft | 288 kts | 187° |
| 2026-04-21 02:22 | 38.80646 | -104.41901 | 9703 ft | 287 kts | 187° |
| 2026-04-21 02:22 | 38.78898 | -104.42194 | 9397 ft | 286 kts | 187° |
| 2026-04-21 02:22 | 38.76936 | -104.42524 | 9061 ft | 283 kts | 187° |
| 2026-04-21 02:23 | 38.75009 | -104.42853 | 8910 ft | 273 kts | 187° |
| 2026-04-21 02:23 | 38.73173 | -104.43171 | 8921 ft | 259 kts | 187° |
| 2026-04-21 02:23 | 38.71434 | -104.43476 | 8919 ft | 246 kts | 187° |
| 2026-04-21 02:23 | 38.69768 | -104.43764 | 8913 ft | 239 kts | 186° |
| 2026-04-21 02:24 | 38.68140 | -104.44168 | 8860 ft | 238 kts | 201° |
| 2026-04-21 02:24 | 38.66829 | -104.45409 | 8468 ft | 238 kts | 233° |
| 2026-04-21 02:24 | 38.66211 | -104.47359 | 8100 ft | 242 kts | 260° |
| 2026-04-21 02:24 | 38.66082 | -104.49510 | 7853 ft | 242 kts | 266° |
| 2026-04-21 02:25 | 38.66032 | -104.51678 | 7847 ft | 245 kts | 267° |
| 2026-04-21 02:25 | 38.65994 | -104.53861 | 7849 ft | 246 kts | 267° |
| 2026-04-21 02:25 | 38.65957 | -104.56048 | 7854 ft | 244 kts | 267° |
| 2026-04-21 02:25 | 38.65932 | -104.58163 | 7844 ft | 231 kts | 268° |
| 2026-04-21 02:26 | 38.65914 | -104.60173 | 7841 ft | 223 kts | 268° |
| 2026-04-21 02:26 | 38.65897 | -104.62138 | 7845 ft | 219 kts | 267° |
| 2026-04-21 02:26 | 38.65966 | -104.64077 | 7848 ft | 219 kts | 279° |
| 2026-04-21 02:26 | 38.66501 | -104.65904 | 7881 ft | 219 kts | 301° |
| 2026-04-21 02:27 | 38.67439 | -104.67308 | 7962 ft | 198 kts | 320° |
| 2026-04-21 02:27 | 38.68567 | -104.68181 | 7827 ft | 184 kts | 339° |
| 2026-04-21 02:27 | 38.69768 | -104.68566 | 7646 ft | 175 kts | 356° |
| 2026-04-21 02:27 | 38.70963 | -104.68593 | 7454 ft | 170 kts | 1° |
| 2026-04-21 02:28 | 38.72140 | -104.68590 | 7254 ft | 169 kts | 0° |
| 2026-04-21 02:28 | 38.73308 | -104.68581 | 7093 ft | 166 kts | 2° |
| 2026-04-21 02:28 | 38.74461 | -104.68587 | 6882 ft | 164 kts | 1° |
| 2026-04-21 02:28 | 38.75590 | -104.68588 | 6693 ft | 161 kts | 1° |
| 2026-04-21 02:29 | 38.76696 | -104.68579 | 6498 ft | 159 kts | 2° |
| 2026-04-21 02:29 | 38.77770 | -104.68576 | 6252 ft | 153 kts | 2° |
| 2026-04-21 02:29 | 38.78801 | -104.68575 | 6195 ft | 132 kts | 360° |
| 2026-04-21 02:29 | 38.79558 | -104.68577 | 6191 ft | 82 kts | 0° |
| 2026-04-21 02:30 | 38.79946 | -104.68583 | 6195 ft | 29 kts | 357° |
| 2026-04-21 02:30 | 38.80107 | -104.68617 | 6197 ft | 17 kts | 342° |
| 2026-04-21 02:30 | 38.80186 | -104.68654 | 6196 ft | 8 kts | 333° |
| 2026-04-21 02:30 | 38.80221 | -104.68686 | 6195 ft | 7 kts | 319° |
| 2026-04-21 02:31 | 38.80270 | -104.68724 | 6195 ft | 9 kts | 335° |
| 2026-04-21 02:31 | 38.80333 | -104.68766 | 6194 ft | 11 kts | 327° |
| 2026-04-21 02:31 | 38.80361 | -104.68863 | 6194 ft | 13 kts | 271° |
| 2026-04-21 02:31 | 38.80362 | -104.68984 | 6194 ft | 14 kts | 270° |
| 2026-04-21 02:32 | 38.80362 | -104.69080 | 6194 ft | 17 kts | 270° |
| 2026-04-21 02:32 | 38.80362 | -104.69255 | 6194 ft | 22 kts | 270° |
| 2026-04-21 02:32 | 38.80362 | -104.69457 | 6194 ft | 23 kts | 269° |
| 2026-04-21 02:32 | 38.80363 | -104.69671 | 6194 ft | 25 kts | 270° |
| 2026-04-21 02:33 | 38.80363 | -104.69898 | 6194 ft | 26 kts | 270° |
| 2026-04-21 02:33 | 38.80356 | -104.70062 | 6193 ft | 14 kts | 241° |
| 2026-04-21 02:33 | 38.80258 | -104.70086 | 6194 ft | 15 kts | 181° |
| 2026-04-21 02:33 | 38.80146 | -104.70086 | 6194 ft | 17 kts | 180° |
| 2026-04-21 02:34 | 38.80078 | -104.70130 | 6194 ft | 7 kts | 256° |
| 2026-04-21 02:34 | 38.80077 | -104.70191 | 6194 ft | 8 kts | 268° |
| 2026-04-21 02:34 | 38.80041 | -104.70241 | 6194 ft | 9 kts | 190° |
| 2026-04-21 02:34 | 38.79980 | -104.70228 | 6194 ft | 9 kts | 145° |
| 2026-04-21 02:35 | 38.79960 | -104.70194 | 6194 ft | 3 kts | 124° |
| 2026-04-21 02:35 | 38.79958 | -104.70190 | 6194 ft | 0 kts | 124° |
| 2026-04-21 02:35 | 38.79955 | -104.70184 | 6194 ft | 2 kts | 123° |
| 2026-04-21 02:36 | 38.79945 | -104.70167 | 6194 ft | 3 kts | 126° |
| 2026-04-21 02:36 | 38.79942 | -104.70162 | 6193 ft | 0 kts | 126° |